createdAt,value
2017-09-02T00:01:09.232Z,86.50
2017-09-02T00:04:19.345Z,87.10
2017-09-02T00:07:29.133Z,86.70
2017-09-02T00:10:39.501Z,86.60
2017-09-02T00:13:49.816Z,87.40
2017-09-02T00:16:59.926Z,86.80
2017-09-02T00:20:11.516Z,87.60
2017-09-02T00:23:22.009Z,87.60
2017-09-02T00:26:32.036Z,88.80
2017-09-02T00:29:42.414Z,88.60
2017-09-02T00:32:52.750Z,89.00
2017-09-02T00:36:02.767Z,87.90
2017-09-02T00:39:13.281Z,88.00
2017-09-02T00:42:22.943Z,88.10
2017-09-02T00:45:33.028Z,87.40
2017-09-02T00:48:43.350Z,87.20
2017-09-02T00:51:53.903Z,88.00
2017-09-02T00:55:04.129Z,88.50
2017-09-02T00:58:14.164Z,88.00
2017-09-02T01:01:24.209Z,88.30
2017-09-02T01:04:34.501Z,87.60
2017-09-02T01:07:45.144Z,87.90
2017-09-02T01:10:55.306Z,88.10
2017-09-02T01:14:05.983Z,89.90
2017-09-02T01:17:15.614Z,90.00
2017-09-02T01:20:26.312Z,89.50
2017-09-02T01:23:36.156Z,89.10
2017-09-02T01:26:46.267Z,89.20
2017-09-02T01:29:56.121Z,89.80
2017-09-02T01:33:08.460Z,90.20
2017-09-02T01:36:18.968Z,90.10
2017-09-02T01:39:28.844Z,90.00
2017-09-02T01:42:39.549Z,90.10
2017-09-02T01:45:50.320Z,88.00
2017-09-02T01:49:00.632Z,88.90
2017-09-02T01:52:10.728Z,89.00
2017-09-02T01:55:21.217Z,90.30
2017-09-02T01:58:31.134Z,90.00
2017-09-02T02:01:41.533Z,90.10
2017-09-02T02:04:51.991Z,90.00
2017-09-02T02:08:02.561Z,90.10
2017-09-02T02:11:12.428Z,90.70
2017-09-02T02:14:23.044Z,90.30
2017-09-02T02:17:33.446Z,90.20
2017-09-02T02:20:43.367Z,89.90
2017-09-02T02:23:54.356Z,89.90
2017-09-02T02:27:04.840Z,89.90
2017-09-02T02:30:14.749Z,89.60
2017-09-02T02:33:25.056Z,90.00
2017-09-02T02:36:35.032Z,89.40
2017-09-02T02:39:45.659Z,90.30
2017-09-02T02:42:55.704Z,90.20
2017-09-02T02:46:05.672Z,90.10
2017-09-02T02:49:15.812Z,89.90
2017-09-02T02:52:26.519Z,89.20
2017-09-02T02:55:36.882Z,89.30
2017-09-02T02:58:46.862Z,89.20
2017-09-02T03:01:57.408Z,88.30
2017-09-02T03:05:07.767Z,88.30
2017-09-02T03:08:18.142Z,87.40
2017-09-02T03:11:28.300Z,88.00
2017-09-02T03:14:38.660Z,88.70
2017-09-02T03:17:49.188Z,88.40
2017-09-02T03:21:00.068Z,88.90
2017-09-02T03:24:10.012Z,88.20
2017-09-02T03:27:20.686Z,87.60
2017-09-02T03:30:30.990Z,87.50
2017-09-02T03:33:42.573Z,87.90
2017-09-02T03:36:53.207Z,87.90
2017-09-02T03:40:03.916Z,87.80
2017-09-02T03:43:13.966Z,87.40
2017-09-02T03:46:24.330Z,87.60
2017-09-02T03:49:34.381Z,87.00
2017-09-02T03:52:44.175Z,87.70
2017-09-02T03:55:55.036Z,87.40
2017-09-02T03:59:05.515Z,87.80
2017-09-02T04:02:16.151Z,88.20
2017-09-02T04:05:25.994Z,87.00
2017-09-02T04:08:36.690Z,87.10
2017-09-02T04:11:47.447Z,87.00
2017-09-02T04:14:57.818Z,87.40
2017-09-02T04:18:08.155Z,89.10
2017-09-02T04:21:18.536Z,88.20
2017-09-02T04:24:28.865Z,88.20
2017-09-02T04:27:39.468Z,88.90
2017-09-02T04:30:49.594Z,88.50
2017-09-02T04:33:59.651Z,88.20
2017-09-02T04:37:10.865Z,88.30
2017-09-02T04:40:20.618Z,88.20
2017-09-02T04:43:31.084Z,88.40
2017-09-02T04:46:41.968Z,88.20
2017-09-02T04:49:51.929Z,89.00
2017-09-02T04:53:01.969Z,88.60
2017-09-02T04:56:12.059Z,88.10
2017-09-02T04:59:23.305Z,88.20
2017-09-02T05:02:34.119Z,88.50
2017-09-02T05:05:44.563Z,89.10
2017-09-02T05:08:55.139Z,88.10
2017-09-02T05:12:05.440Z,88.50
2017-09-02T05:15:15.826Z,88.20
2017-09-02T05:18:25.605Z,87.70
2017-09-02T05:21:35.420Z,88.60
2017-09-02T05:24:46.033Z,88.00
2017-09-02T05:27:56.300Z,88.00
2017-09-02T05:31:06.535Z,87.00
2017-09-02T05:34:17.393Z,87.10
2017-09-02T05:37:27.847Z,87.60
2017-09-02T05:40:38.139Z,88.50
2017-09-02T05:43:49.550Z,88.10
2017-09-02T05:47:00.018Z,88.10
2017-09-02T05:50:10.652Z,87.60
2017-09-02T05:53:21.070Z,87.10
2017-09-02T05:56:31.564Z,86.90
2017-09-02T05:59:41.645Z,87.30
2017-09-02T06:02:52.337Z,85.90
2017-09-02T06:06:02.397Z,87.50
2017-09-02T06:09:12.709Z,86.60
2017-09-02T06:12:23.394Z,87.40
2017-09-02T06:15:33.119Z,87.00
2017-09-02T06:18:43.384Z,86.30
2017-09-02T06:21:54.718Z,87.20
2017-09-02T06:25:04.518Z,87.30
2017-09-02T06:28:15.196Z,86.60
2017-09-02T06:31:25.745Z,87.30
2017-09-02T06:34:36.123Z,87.60
2017-09-02T06:37:46.594Z,89.30
2017-09-02T06:40:56.816Z,88.30
2017-09-02T06:44:06.909Z,88.20
2017-09-02T06:47:17.427Z,87.30
2017-09-02T06:50:28.368Z,87.50
2017-09-02T06:53:38.555Z,88.00
2017-09-02T06:56:48.785Z,89.10
2017-09-02T06:59:59.448Z,87.10
2017-09-02T07:03:10.403Z,87.70
2017-09-02T07:06:20.380Z,87.50
2017-09-02T07:09:30.882Z,89.00
2017-09-02T07:12:41.054Z,87.80
2017-09-02T07:15:52.370Z,86.30
2017-09-02T07:19:02.271Z,86.20
2017-09-02T07:22:12.195Z,86.50
2017-09-02T07:25:22.504Z,87.50
2017-09-02T07:28:33.508Z,86.00
2017-09-02T07:31:43.432Z,85.70
2017-09-02T07:34:53.137Z,86.10
2017-09-02T07:38:03.550Z,86.00
2017-09-02T07:41:14.727Z,86.30
2017-09-02T07:44:24.901Z,86.70
2017-09-02T07:47:35.379Z,86.30
2017-09-02T07:50:45.192Z,85.30
2017-09-02T07:53:55.224Z,86.50
2017-09-02T07:57:06.365Z,86.50
2017-09-02T08:00:16.999Z,85.60
2017-09-02T08:03:26.955Z,85.20
2017-09-02T08:06:37.513Z,85.00
2017-09-02T08:09:47.798Z,85.90
2017-09-02T08:12:58.886Z,85.10
2017-09-02T08:16:09.141Z,84.30
2017-09-02T08:19:20.321Z,84.70
2017-09-02T08:22:30.975Z,82.80
2017-09-02T08:25:44.571Z,83.60
2017-09-02T08:28:54.995Z,84.10
2017-09-02T08:32:05.208Z,84.50
2017-09-02T08:35:15.473Z,82.80
2017-09-02T08:38:25.670Z,83.30
2017-09-02T08:41:36.420Z,82.60
2017-09-02T08:44:46.441Z,83.60
2017-09-02T08:47:57.737Z,82.50
2017-09-02T08:51:08.183Z,82.80
2017-09-02T08:54:18.885Z,82.70
2017-09-02T08:57:29.389Z,80.70
2017-09-02T09:00:39.815Z,80.30
2017-09-02T09:03:50.209Z,81.90
2017-09-02T09:07:00.439Z,79.40
2017-09-02T09:10:11.216Z,81.40
2017-09-02T09:13:21.347Z,80.70
2017-09-02T09:16:32.165Z,80.00
2017-09-02T09:19:42.317Z,78.40
2017-09-02T09:22:52.808Z,78.60
2017-09-02T09:26:03.184Z,77.60
2017-09-02T09:29:13.706Z,76.70
2017-09-02T09:32:23.793Z,78.20
2017-09-02T09:35:34.328Z,75.90
2017-09-02T09:38:44.831Z,74.40
2017-09-02T09:41:54.856Z,74.10
2017-09-02T09:45:05.146Z,76.50
2017-09-02T09:48:15.524Z,75.70
2017-09-02T09:51:25.880Z,73.20
2017-09-02T09:54:36.339Z,72.70
2017-09-02T09:57:46.690Z,74.40
2017-09-02T10:00:56.843Z,73.70
2017-09-02T10:04:07.180Z,70.80
2017-09-02T10:07:18.001Z,69.50
2017-09-02T10:10:28.281Z,72.20
2017-09-02T10:13:39.094Z,71.50
2017-09-02T10:16:49.513Z,72.40
2017-09-02T10:19:59.141Z,70.60
2017-09-02T10:23:09.193Z,70.60
2017-09-02T10:26:19.239Z,68.90
2017-09-02T10:29:30.118Z,69.40
2017-09-02T10:32:40.694Z,68.50
2017-09-02T10:35:51.370Z,67.80
2017-09-02T10:39:01.674Z,67.70
2017-09-02T10:42:11.722Z,67.60
2017-09-02T10:45:22.864Z,68.10
2017-09-02T10:48:32.710Z,68.10
2017-09-02T10:51:43.229Z,67.50
2017-09-02T10:54:53.008Z,68.50
2017-09-02T10:58:03.871Z,68.90
2017-09-02T11:01:14.505Z,69.50
2017-09-02T11:04:25.366Z,68.70
2017-09-02T11:07:35.183Z,67.10
2017-09-02T11:10:45.169Z,67.20
2017-09-02T11:13:55.329Z,66.80
2017-09-02T11:17:05.812Z,67.50
2017-09-02T11:20:16.532Z,68.20
2017-09-02T11:23:27.992Z,67.00
2017-09-02T11:26:37.810Z,66.90
2017-09-02T11:29:48.479Z,65.20
2017-09-02T11:32:59.155Z,67.40
2017-09-02T11:36:09.500Z,67.30
2017-09-02T11:39:19.868Z,65.40
2017-09-02T11:42:30.650Z,64.20
2017-09-02T11:45:40.936Z,64.10
2017-09-02T11:48:51.473Z,65.30
2017-09-02T11:52:01.622Z,65.00
2017-09-02T11:55:11.460Z,63.20
2017-09-02T11:58:25.370Z,63.40
2017-09-02T12:01:36.334Z,63.50
2017-09-02T12:04:46.670Z,65.40
2017-09-02T12:07:56.740Z,64.10
2017-09-02T12:11:07.901Z,63.70
2017-09-02T12:14:18.230Z,64.20
2017-09-02T12:17:28.327Z,64.00
2017-09-02T12:20:37.963Z,63.80
2017-09-02T12:23:47.999Z,63.40
2017-09-02T12:26:58.373Z,61.60
2017-09-02T12:30:08.581Z,61.00
2017-09-02T12:33:19.204Z,61.10
2017-09-02T12:36:29.468Z,63.60
2017-09-02T12:39:39.476Z,61.00
2017-09-02T12:42:49.707Z,61.50
2017-09-02T12:45:59.574Z,59.10
2017-09-02T12:49:10.144Z,59.00
2017-09-02T12:52:20.360Z,59.10
2017-09-02T12:55:30.876Z,61.80
2017-09-02T12:58:41.524Z,58.70
2017-09-02T13:01:52.047Z,57.70
2017-09-02T13:05:01.708Z,60.20
2017-09-02T13:08:11.833Z,56.70
2017-09-02T13:11:21.862Z,58.10
2017-09-02T13:14:32.945Z,57.40
2017-09-02T13:17:43.511Z,57.40
2017-09-02T13:20:53.554Z,57.50
2017-09-02T13:24:04.039Z,57.20
2017-09-02T13:27:14.651Z,58.20
2017-09-02T13:30:25.296Z,56.70
2017-09-02T13:33:35.677Z,57.00
2017-09-02T13:36:46.072Z,56.20
2017-09-02T13:39:56.079Z,56.70
2017-09-02T13:43:05.947Z,56.40
2017-09-02T13:46:16.346Z,54.10
2017-09-02T13:49:26.355Z,54.90
2017-09-02T13:52:37.234Z,56.70
2017-09-02T13:55:47.751Z,58.80
2017-09-02T13:58:57.918Z,64.70
2017-09-02T14:02:08.822Z,65.80
2017-09-02T14:05:19.129Z,64.60
2017-09-02T14:08:29.831Z,68.00
2017-09-02T14:11:40.102Z,65.90
2017-09-02T14:14:49.947Z,63.80
2017-09-02T14:18:00.688Z,64.60
2017-09-02T14:21:11.193Z,65.70
2017-09-02T14:24:22.125Z,66.90
2017-09-02T14:27:32.556Z,68.40
2017-09-02T14:30:42.768Z,70.50
2017-09-02T14:33:53.988Z,72.90
2017-09-02T14:37:04.538Z,69.70
2017-09-02T14:40:15.207Z,68.20
2017-09-02T14:43:25.590Z,68.50
2017-09-02T14:46:35.852Z,69.00
2017-09-02T14:49:45.791Z,68.30
2017-09-02T14:52:56.269Z,69.30
2017-09-02T14:56:06.584Z,67.60
2017-09-02T14:59:19.655Z,69.40
2017-09-02T15:02:29.535Z,70.40
2017-09-02T15:05:40.205Z,70.50
2017-09-02T15:08:50.821Z,70.40
2017-09-02T15:12:00.973Z,70.80
2017-09-02T15:15:11.155Z,68.90
2017-09-02T15:18:21.239Z,67.70
2017-09-02T15:21:32.367Z,67.90
2017-09-02T15:24:43.096Z,67.00
2017-09-02T15:27:53.469Z,66.10
2017-09-02T15:31:03.536Z,66.40
2017-09-02T15:34:13.426Z,65.90
2017-09-02T15:37:24.449Z,67.40
2017-09-02T15:40:34.385Z,66.50
2017-09-02T15:43:44.978Z,65.90
2017-09-02T15:46:55.031Z,64.50
2017-09-02T15:50:05.707Z,66.70
2017-09-02T15:53:16.886Z,66.60
2017-09-02T15:56:27.072Z,62.80
2017-09-02T15:59:37.721Z,64.40
2017-09-02T16:02:47.537Z,64.40
2017-09-02T16:05:58.193Z,66.50
2017-09-02T16:09:08.298Z,67.60
2017-09-02T16:12:18.480Z,68.30
2017-09-02T16:15:28.574Z,68.70
2017-09-02T16:18:38.699Z,68.30
2017-09-02T16:21:48.736Z,69.30
2017-09-02T16:24:59.006Z,70.00
2017-09-02T16:28:10.272Z,68.50
2017-09-02T16:31:21.210Z,70.70
2017-09-02T16:34:31.450Z,70.10
2017-09-02T16:37:41.216Z,69.20
2017-09-02T16:40:51.723Z,68.90
2017-09-02T16:44:02.211Z,68.80
2017-09-02T16:47:12.146Z,69.80
2017-09-02T16:50:22.107Z,69.20
2017-09-02T16:53:31.933Z,70.70
2017-09-02T16:56:42.312Z,70.90
2017-09-02T16:59:52.460Z,71.30
2017-09-02T17:03:02.531Z,72.10
2017-09-02T17:06:12.347Z,70.20
2017-09-02T17:09:22.403Z,72.80
2017-09-02T17:12:32.699Z,71.50
2017-09-02T17:15:42.753Z,71.80
2017-09-02T17:18:53.761Z,71.00
2017-09-02T17:22:04.105Z,71.00
2017-09-02T17:25:14.254Z,71.30
2017-09-02T17:28:24.705Z,71.80
2017-09-02T17:31:34.293Z,70.40
2017-09-02T17:34:44.870Z,70.50
2017-09-02T17:37:55.016Z,70.90
2017-09-02T17:41:04.956Z,70.50
2017-09-02T17:44:15.300Z,72.20
2017-09-02T17:47:25.480Z,70.70
2017-09-02T17:50:36.178Z,70.40
2017-09-02T17:53:46.598Z,70.40
2017-09-02T17:56:56.793Z,70.40
2017-09-02T18:00:06.898Z,70.90
2017-09-02T18:03:17.473Z,70.40
2017-09-02T18:06:27.262Z,71.30
2017-09-02T18:09:37.808Z,73.10
2017-09-02T18:12:48.012Z,72.50
2017-09-02T18:15:58.046Z,73.40
2017-09-02T18:19:08.522Z,72.90
2017-09-02T18:22:18.868Z,72.60
2017-09-02T18:25:28.999Z,71.00
2017-09-02T18:28:39.760Z,69.90
2017-09-02T18:31:51.195Z,70.70
2017-09-02T18:35:01.288Z,70.70
2017-09-02T18:38:11.305Z,69.20
2017-09-02T18:41:21.775Z,71.40
2017-09-02T18:44:32.320Z,71.00
2017-09-02T18:47:42.645Z,71.90
2017-09-02T18:50:53.038Z,71.60
2017-09-02T18:54:03.019Z,73.30
2017-09-02T18:57:13.304Z,73.60
2017-09-02T19:00:23.195Z,73.60
2017-09-02T19:03:33.097Z,74.10
2017-09-02T19:06:43.925Z,74.10
2017-09-02T19:09:54.847Z,74.20
2017-09-02T19:13:05.170Z,74.80
2017-09-02T19:16:15.395Z,72.80
2017-09-02T19:19:25.652Z,73.10
2017-09-02T19:22:36.155Z,71.30
2017-09-02T19:25:46.646Z,72.50
2017-09-02T19:28:56.505Z,72.00
2017-09-02T19:32:07.196Z,72.20
2017-09-02T19:35:17.382Z,71.30
2017-09-02T19:38:27.804Z,72.90
2017-09-02T19:41:38.660Z,74.20
2017-09-02T19:44:48.429Z,74.10
2017-09-02T19:47:58.764Z,72.50
2017-09-02T19:51:09.857Z,73.20
2017-09-02T19:54:19.902Z,74.00
2017-09-02T19:57:29.821Z,73.70
2017-09-02T20:00:40.745Z,72.40
2017-09-02T20:03:50.962Z,72.00
2017-09-02T20:07:01.908Z,73.30
2017-09-02T20:10:12.101Z,72.90
2017-09-02T20:13:22.888Z,74.60
2017-09-02T20:16:33.537Z,75.70
2017-09-02T20:19:43.503Z,76.10
2017-09-02T20:22:53.375Z,76.50
2017-09-02T20:26:03.540Z,77.30
2017-09-02T20:29:14.096Z,76.20
2017-09-02T20:32:24.713Z,77.00
2017-09-02T20:35:35.064Z,75.80
2017-09-02T20:38:45.631Z,75.70
2017-09-02T20:41:56.104Z,76.30
2017-09-02T20:45:06.333Z,77.60
2017-09-02T20:48:16.498Z,76.40
2017-09-02T20:51:26.778Z,76.10
2017-09-02T20:54:37.393Z,77.20
2017-09-02T20:57:47.944Z,76.70
2017-09-02T21:00:57.915Z,76.80
2017-09-02T21:04:08.650Z,76.10
2017-09-02T21:07:19.219Z,77.10
2017-09-02T21:10:29.571Z,76.90
2017-09-02T21:13:39.586Z,77.00
2017-09-02T21:16:50.493Z,76.90
2017-09-02T21:20:00.988Z,76.90
2017-09-02T21:23:10.801Z,77.40
2017-09-02T21:26:21.527Z,77.00
2017-09-02T21:29:32.128Z,76.90
2017-09-02T21:32:42.695Z,76.60
2017-09-02T21:35:52.918Z,76.50
2017-09-02T21:39:02.821Z,76.40
2017-09-02T21:42:13.684Z,76.80
2017-09-02T21:45:25.020Z,77.30
2017-09-02T21:48:35.498Z,76.40
2017-09-02T21:51:46.110Z,75.90
2017-09-02T21:54:56.738Z,76.10
2017-09-02T21:58:07.149Z,76.40
2017-09-02T22:01:18.017Z,77.90
2017-09-02T22:04:28.503Z,77.90
2017-09-02T22:07:38.428Z,78.40
2017-09-02T22:10:48.135Z,77.60
2017-09-02T22:13:58.980Z,79.00
2017-09-02T22:17:09.723Z,80.40
2017-09-02T22:20:20.332Z,80.00
2017-09-02T22:23:30.227Z,79.10
2017-09-02T22:26:40.209Z,78.60
2017-09-02T22:29:50.616Z,79.90
2017-09-02T22:33:00.851Z,80.80
2017-09-02T22:36:11.101Z,82.00
2017-09-02T22:39:21.691Z,81.80
2017-09-02T22:42:32.164Z,83.00
2017-09-02T22:45:42.172Z,83.70
2017-09-02T22:48:52.758Z,83.40
2017-09-02T22:52:03.020Z,82.00
2017-09-02T22:55:13.816Z,81.70
2017-09-02T22:58:24.353Z,81.20
2017-09-02T23:01:34.226Z,81.50
2017-09-02T23:04:44.979Z,82.00
2017-09-02T23:07:54.901Z,82.30
2017-09-02T23:11:05.743Z,81.10
2017-09-02T23:14:16.129Z,81.10
2017-09-02T23:17:26.433Z,82.70
2017-09-02T23:20:36.385Z,81.50
2017-09-02T23:23:46.287Z,81.80
2017-09-02T23:26:56.396Z,82.00
2017-09-02T23:30:06.591Z,81.40
2017-09-02T23:33:17.222Z,82.60
2017-09-02T23:36:28.035Z,82.50
2017-09-02T23:39:37.900Z,84.10
2017-09-02T23:42:48.225Z,83.30
2017-09-02T23:45:58.312Z,83.60
2017-09-02T23:49:09.062Z,86.10
2017-09-02T23:52:19.484Z,85.10
2017-09-02T23:55:29.609Z,84.50
2017-09-02T23:58:40.069Z,83.60
